Time;durP1;ratioP1;P1;durP2;ratioP2;P2;SDS_P1;SDS_P2;PMS_P1;PMS_P2;Temp;Humidity;BMP_temperature;BMP_pressure;BME280_temperature;BME280_humidity;BME280_pressure;Samples;Min_cycle;Max_cycle;Signal;HPM_P1;HPM_P2
2022/04/23 00:00:25;;;;;;;6.03;5.43;;;11.60;99.90;;;;;;5082876;28;20908;-81
2022/04/23 00:03:09;;;;;;;5.13;4.73;;;11.50;99.90;;;;;;5082751;28;20444;-82
2022/04/23 00:05:53;;;;;;;7.57;5.73;;;11.50;99.90;;;;;;5082837;28;20471;-82
2022/04/23 00:08:38;;;;;;;5.43;4.93;;;11.50;99.90;;;;;;5070543;28;20405;-81
2022/04/23 00:11:23;;;;;;;5.30;4.80;;;11.30;99.90;;;;;;5072407;28;20534;-80
2022/04/23 00:14:07;;;;;;;6.70;5.47;;;11.30;99.90;;;;;;5086173;28;20381;-80
2022/04/23 00:16:53;;;;;;;9.43;6.07;;;11.30;99.90;;;;;;5085852;28;20389;-80
2022/04/23 00:19:38;;;;;;;4.90;4.50;;;11.20;99.90;;;;;;5085423;28;20888;-80
2022/04/23 00:22:23;;;;;;;4.53;4.13;;;11.20;99.90;;;;;;5087120;28;20454;-80
2022/04/23 00:25:08;;;;;;;5.20;4.70;;;11.20;99.90;;;;;;5086827;28;20434;-80
2022/04/23 00:27:53;;;;;;;4.30;3.90;;;11.20;99.90;;;;;;5086887;28;20412;-81
2022/04/23 00:30:38;;;;;;;5.40;4.57;;;11.10;99.90;;;;;;5087181;28;20389;-79
2022/04/23 00:33:22;;;;;;;6.37;4.70;;;11.10;99.90;;;;;;5088206;28;20397;-81
2022/04/23 00:36:10;;;;;;;6.10;4.97;;;11.10;99.90;;;;;;5087788;28;20380;-81
2022/04/23 00:38:54;;;;;;;5.17;4.67;;;11.10;99.90;;;;;;5088385;28;20393;-81
2022/04/23 00:41:57;;;;;;;4.83;4.33;;;11.00;99.90;;;;;;5073481;28;20393;-81
2022/04/23 00:44:41;;;;;;;4.47;4.10;;;11.10;99.90;;;;;;5087886;28;20381;-81
2022/04/23 00:47:25;;;;;;;5.60;4.97;;;11.00;99.90;;;;;;5085827;28;20448;-80
2022/04/23 00:50:10;;;;;;;6.40;5.20;;;11.10;99.90;;;;;;5082020;28;20750;-80
2022/04/23 00:53:01;;;;;;;5.80;5.30;;;11.10;99.90;;;;;;5082513;28;20500;-80
2022/04/23 00:55:47;;;;;;;5.47;4.97;;;11.10;99.90;;;;;;5081512;28;20437;-80
2022/04/23 00:58:31;;;;;;;5.43;4.93;;;11.10;99.90;;;;;;5080998;28;20392;-81
2022/04/23 01:01:16;;;;;;;5.50;5.00;;;11.10;99.90;;;;;;5081331;28;20471;-80
2022/04/23 01:04:05;;;;;;;5.10;4.60;;;11.10;99.90;;;;;;5065782;28;20536;-81
2022/04/23 01:06:50;;;;;;;6.30;5.27;;;11.10;99.90;;;;;;5066551;28;20502;-81
2022/04/23 01:09:34;;;;;;;5.53;5.03;;;11.10;99.90;;;;;;5081266;28;20806;-81
2022/04/23 01:12:19;;;;;;;5.20;4.70;;;11.00;99.90;;;;;;5081471;28;20734;-81
2022/04/23 01:15:06;;;;;;;5.60;4.90;;;11.00;99.90;;;;;;5082037;28;20393;-80
2022/04/23 01:17:51;;;;;;;6.53;5.17;;;10.90;99.90;;;;;;5081701;28;20925;-81
2022/04/23 01:20:36;;;;;;;6.97;5.53;;;11.10;99.90;;;;;;5082100;28;20385;-81
2022/04/23 01:23:20;;;;;;;5.97;5.47;;;10.90;99.90;;;;;;5089189;28;20461;-79
2022/04/23 01:26:05;;;;;;;5.73;4.80;;;10.80;99.90;;;;;;5096964;28;20490;-79
2022/04/23 01:28:50;;;;;;;4.93;4.53;;;10.80;99.90;;;;;;5097403;28;20398;-79
2022/04/23 01:31:34;;;;;;;8.03;5.20;;;10.70;99.90;;;;;;5080055;28;20389;-80
2022/04/23 01:34:19;;;;;;;5.77;5.13;;;10.70;99.90;;;;;;5081105;28;20385;-81
2022/04/23 01:37:03;;;;;;;6.57;4.73;;;10.80;99.90;;;;;;5052013;28;20389;-80
2022/04/23 01:39:49;;;;;;;6.23;5.63;;;10.70;99.90;;;;;;5081333;28;20409;-80
2022/04/23 01:42:33;;;;;;;6.87;5.17;;;10.70;99.90;;;;;;5065620;28;20385;-80
2022/04/23 01:45:18;;;;;;;5.83;5.17;;;10.60;99.90;;;;;;5080698;28;20420;-80
2022/04/23 01:48:03;;;;;;;7.43;5.40;;;10.50;99.90;;;;;;5081116;28;20389;-80
2022/04/23 01:50:47;;;;;;;4.83;4.43;;;10.50;99.90;;;;;;5090623;28;20385;-80
2022/04/23 01:53:32;;;;;;;5.80;5.00;;;10.60;99.90;;;;;;5089278;28;21007;-80
2022/04/23 01:56:16;;;;;;;5.90;4.90;;;10.60;99.90;;;;;;5080531;28;20474;-81
2022/04/23 01:59:01;;;;;;;6.83;5.70;;;10.30;99.90;;;;;;5081015;28;20380;-80
2022/04/23 02:01:45;;;;;;;6.47;5.43;;;10.30;99.90;;;;;;5080470;28;20439;-80
2022/04/23 02:04:30;;;;;;;8.60;5.90;;;10.50;99.90;;;;;;5080556;28;20484;-81
2022/04/23 02:07:17;;;;;;;6.03;5.43;;;10.50;99.90;;;;;;5080260;28;20806;-80
2022/04/23 02:10:02;;;;;;;6.57;5.37;;;10.70;99.90;;;;;;5080410;28;20385;-80
2022/04/23 02:12:46;;;;;;;5.23;4.73;;;10.80;99.90;;;;;;5064828;28;20384;-80
2022/04/23 02:15:31;;;;;;;6.33;5.67;;;11.00;99.90;;;;;;5064813;28;20897;-80
2022/04/23 02:18:16;;;;;;;6.27;4.60;;;11.10;99.90;;;;;;5080091;28;20389;-80
2022/04/23 02:21:00;;;;;;;7.47;5.00;;;11.20;99.90;;;;;;5080061;28;20539;-81
2022/04/23 02:23:45;;;;;;;8.00;5.97;;;11.10;99.90;;;;;;5079989;28;20389;-80
2022/04/23 02:26:29;;;;;;;8.03;5.50;;;11.00;99.90;;;;;;5064270;28;20456;-81
2022/04/23 02:29:14;;;;;;;4.83;4.37;;;10.90;99.90;;;;;;5080579;28;20516;-80
2022/04/23 02:31:59;;;;;;;5.40;5.00;;;10.80;99.90;;;;;;5081707;28;20380;-81
2022/04/23 02:34:43;;;;;;;6.90;5.23;;;10.90;99.90;;;;;;5081154;28;20404;-81
2022/04/23 02:37:29;;;;;;;5.67;5.10;;;10.80;99.90;;;;;;5067612;28;20381;-80
2022/04/23 02:40:15;;;;;;;7.80;5.10;;;10.90;99.90;;;;;;5079861;28;20924;-80
2022/04/23 02:43:02;;;;;;;9.00;5.90;;;11.00;99.90;;;;;;5079421;28;20385;-81
2022/04/23 02:45:48;;;;;;;7.83;5.27;;;11.00;99.90;;;;;;5064575;28;20441;-80
2022/04/23 02:48:32;;;;;;;9.60;6.10;;;11.10;99.90;;;;;;5064617;28;20726;-80
2022/04/23 02:51:17;;;;;;;5.37;4.97;;;11.10;99.90;;;;;;5079279;28;20428;-81
2022/04/23 02:54:01;;;;;;;6.40;4.93;;;11.10;99.90;;;;;;5079503;28;20385;-80
2022/04/23 02:56:49;;;;;;;6.23;5.70;;;11.20;99.90;;;;;;5079718;28;20483;-81
2022/04/23 02:59:33;;;;;;;10.03;7.67;;;11.20;99.90;;;;;;5079340;28;20500;-80
2022/04/23 03:02:18;;;;;;;8.13;6.00;;;11.10;99.90;;;;;;5079578;28;20404;-80
2022/04/23 03:05:07;;;;;;;8.13;7.33;;;11.30;99.90;;;;;;5079704;28;20389;-81
2022/04/23 03:07:53;;;;;;;10.80;7.67;;;11.20;99.90;;;;;;5083224;28;20400;-78
2022/04/23 03:10:39;;;;;;;9.47;8.30;;;11.20;99.90;;;;;;5090320;28;20400;-78
2022/04/23 03:13:24;;;;;;;11.97;8.07;;;11.20;99.90;;;;;;5089728;28;20381;-80
2022/04/23 03:16:09;;;;;;;10.57;8.90;;;11.20;99.90;;;;;;5090558;28;20433;-77
2022/04/23 03:18:54;;;;;;;9.60;8.40;;;11.20;99.90;;;;;;5089386;28;20393;-80
2022/04/23 03:21:39;;;;;;;9.30;8.40;;;11.00;99.90;;;;;;5081031;28;20373;-81
2022/04/23 03:24:24;;;;;;;10.57;9.00;;;11.10;99.90;;;;;;5080411;28;20377;-81
2022/04/23 03:27:09;;;;;;;8.03;7.27;;;11.10;99.90;;;;;;5079534;28;20495;-80
2022/04/23 03:29:53;;;;;;;9.50;8.50;;;11.00;99.90;;;;;;5063913;28;20388;-81
2022/04/23 03:32:38;;;;;;;9.07;8.00;;;10.90;99.90;;;;;;5079155;28;20789;-80
2022/04/23 03:35:22;;;;;;;13.03;10.00;;;10.90;99.90;;;;;;5079374;28;20412;-80
2022/04/23 03:38:07;;;;;;;10.10;8.57;;;10.90;99.90;;;;;;5085925;28;20408;-79
2022/04/23 03:40:54;;;;;;;12.50;9.57;;;10.70;99.90;;;;;;5073526;28;20409;-79
2022/04/23 03:43:39;;;;;;;11.37;8.97;;;10.70;99.90;;;;;;5094685;28;20383;-78
2022/04/23 03:46:24;;;;;;;13.77;10.17;;;10.60;99.90;;;;;;5082908;28;20471;-80
2022/04/23 03:49:08;;;;;;;13.27;9.73;;;10.60;99.90;;;;;;5080298;28;20416;-81
2022/04/23 03:51:52;;;;;;;24.70;11.90;;;10.40;99.90;;;;;;5083481;28;20471;-81
2022/04/23 03:54:37;;;;;;;14.17;9.87;;;10.40;99.90;;;;;;5082445;28;20454;-81
2022/04/23 03:57:22;;;;;;;15.60;11.50;;;10.30;99.90;;;;;;5083039;28;20411;-80
2022/04/23 04:00:09;;;;;;;15.97;12.80;;;10.40;99.90;;;;;;5082570;28;20408;-80
2022/04/23 04:02:55;;;;;;;17.37;11.93;;;10.50;99.90;;;;;;5081253;28;20455;-80
2022/04/23 04:05:39;;;;;;;16.77;12.47;;;10.30;99.90;;;;;;5082286;28;20393;-80
2022/04/23 04:08:24;;;;;;;19.47;12.63;;;10.20;99.90;;;;;;5082268;28;20475;-80
2022/04/23 04:11:08;;;;;;;17.63;11.80;;;10.30;99.90;;;;;;5082441;28;20388;-81
2022/04/23 04:13:53;;;;;;;23.00;14.00;;;10.40;99.90;;;;;;5082322;28;20397;-81
2022/04/23 04:16:38;;;;;;;17.63;13.03;;;10.50;99.90;;;;;;5081228;28;20963;-81
2022/04/23 04:19:25;;;;;;;15.10;12.17;;;10.50;99.90;;;;;;5067010;28;20422;-81
2022/04/23 04:22:09;;;;;;;14.60;11.53;;;10.60;99.90;;;;;;5081855;28;20446;-81
2022/04/23 04:24:54;;;;;;;19.17;14.73;;;10.50;99.90;;;;;;5082296;28;20401;-81
2022/04/23 04:27:40;;;;;;;19.63;13.17;;;10.50;99.90;;;;;;5083051;28;20405;-80
2022/04/23 04:30:24;;;;;;;16.60;14.40;;;10.50;99.90;;;;;;5082289;28;20421;-81
2022/04/23 04:33:09;;;;;;;23.87;14.70;;;10.50;99.90;;;;;;5082317;28;20431;-80
2022/04/23 04:35:54;;;;;;;16.37;12.40;;;10.50;99.90;;;;;;5081817;28;20456;-80
2022/04/23 04:38:39;;;;;;;16.00;13.13;;;10.60;99.90;;;;;;5081475;28;20472;-81
2022/04/23 04:41:23;;;;;;;19.47;13.83;;;10.70;99.90;;;;;;5082763;28;20388;-80
2022/04/23 04:44:09;;;;;;;15.40;12.90;;;10.80;99.90;;;;;;5088577;28;20421;-77
2022/04/23 04:46:53;;;;;;;17.37;12.60;;;11.00;99.90;;;;;;5090900;28;20390;-81
2022/04/23 04:49:39;;;;;;;17.93;13.30;;;11.10;99.90;;;;;;5091695;28;20393;-80
2022/04/23 04:52:23;;;;;;;14.43;12.90;;;11.20;99.90;;;;;;5091105;28;20461;-81
2022/04/23 04:55:08;;;;;;;15.40;12.73;;;11.20;99.90;;;;;;5091559;28;20443;-81
2022/04/23 04:57:54;;;;;;;23.20;13.80;;;11.10;99.90;;;;;;5091306;28;20388;-80
2022/04/23 05:00:39;;;;;;;18.43;13.30;;;11.00;99.90;;;;;;5089306;28;20424;-81
2022/04/23 05:03:25;;;;;;;19.00;13.40;;;11.00;99.90;;;;;;5087574;28;20445;-80
2022/04/23 05:06:10;;;;;;;24.07;15.97;;;11.00;99.90;;;;;;5091848;28;20380;-80
2022/04/23 05:08:54;;;;;;;18.53;13.73;;;11.10;99.90;;;;;;5089284;28;20411;-80
2022/04/23 05:11:39;;;;;;;18.27;15.63;;;11.20;99.90;;;;;;5090251;28;20385;-81
2022/04/23 05:14:24;;;;;;;23.93;14.70;;;11.10;99.90;;;;;;5087900;28;20397;-81
2022/04/23 05:17:08;;;;;;;20.93;15.33;;;11.00;99.90;;;;;;5085124;28;20554;-80
2022/04/23 05:19:53;;;;;;;19.70;14.80;;;11.20;99.90;;;;;;5089403;28;20393;-81
2022/04/23 05:22:37;;;;;;;20.03;14.40;;;11.10;99.90;;;;;;5091316;28;20505;-81
2022/04/23 05:25:22;;;;;;;26.87;16.60;;;11.00;99.90;;;;;;5088981;28;20385;-81
2022/04/23 05:28:27;;;;;;;29.07;14.63;;;11.10;99.90;;;;;;5093251;28;20415;-79
2022/04/23 05:31:11;;;;;;;19.40;13.83;;;11.10;99.90;;;;;;5045566;28;20406;-81
2022/04/23 05:33:55;;;;;;;20.00;14.17;;;11.10;99.90;;;;;;5026296;28;20383;-80
2022/04/23 05:36:39;;;;;;;18.03;14.30;;;11.30;99.90;;;;;;5025685;28;20472;-80
2022/04/23 05:39:24;;;;;;;19.27;14.40;;;11.40;99.90;;;;;;5040203;28;20830;-79
2022/04/23 05:42:08;;;;;;;20.23;14.70;;;11.40;99.90;;;;;;5039811;28;20414;-81
2022/04/23 05:44:53;;;;;;;19.40;15.60;;;11.40;99.90;;;;;;5039892;28;20438;-81
2022/04/23 05:47:41;;;;;;;20.33;14.13;;;11.40;99.90;;;;;;5038898;28;20842;-80
2022/04/23 05:50:25;;;;;;;20.47;15.03;;;11.30;99.90;;;;;;5024773;28;20462;-80
2022/04/23 05:53:11;;;;;;;34.80;16.57;;;11.20;99.90;;;;;;5038937;28;20454;-81
2022/04/23 05:55:56;;;;;;;25.27;15.73;;;11.20;99.90;;;;;;5038930;28;20513;-81
2022/04/23 05:58:41;;;;;;;20.17;13.60;;;11.30;99.90;;;;;;5039392;28;20900;-80
2022/04/23 06:01:25;;;;;;;16.30;14.30;;;11.30;99.90;;;;;;5051009;28;20447;-81
2022/04/23 06:04:09;;;;;;;20.83;15.73;;;11.20;99.90;;;;;;5080300;28;20444;-82
2022/04/23 06:06:54;;;;;;;25.60;16.23;;;11.40;99.90;;;;;;5080306;28;20519;-79
2022/04/23 06:09:39;;;;;;;22.43;16.20;;;11.40;99.90;;;;;;5079967;28;20389;-80
2022/04/23 06:12:24;;;;;;;19.10;15.20;;;11.30;99.90;;;;;;5081539;28;20801;-81
2022/04/23 06:15:08;;;;;;;28.20;17.17;;;11.10;99.90;;;;;;5081487;28;20429;-80
2022/04/23 06:17:53;;;;;;;26.50;15.53;;;11.40;99.90;;;;;;5081007;28;20902;-81
2022/04/23 06:20:37;;;;;;;19.87;15.00;;;11.30;99.90;;;;;;5081253;28;20373;-81
2022/04/23 06:23:22;;;;;;;21.03;14.27;;;11.30;99.90;;;;;;5081090;28;20393;-80
2022/04/23 06:26:07;;;;;;;24.13;14.53;;;11.40;99.90;;;;;;5080552;28;20385;-80
2022/04/23 06:28:51;;;;;;;21.77;15.00;;;11.60;99.90;;;;;;5081080;28;20462;-81
2022/04/23 06:31:36;;;;;;;20.90;15.47;;;11.60;99.90;;;;;;5080698;28;20412;-80
2022/04/23 06:34:20;;;;;;;27.53;17.03;;;11.40;99.90;;;;;;5080284;28;20427;-81
2022/04/23 06:37:05;;;;;;;21.77;16.30;;;11.40;99.90;;;;;;5079891;28;20806;-81
2022/04/23 06:39:50;;;;;;;23.93;16.90;;;11.30;99.90;;;;;;5078775;28;21012;-81
2022/04/23 06:42:34;;;;;;;30.97;17.30;;;11.50;99.90;;;;;;5081043;28;20420;-79
2022/04/23 06:45:20;;;;;;;21.40;13.70;;;11.70;99.90;;;;;;5082110;28;20412;-81
2022/04/23 06:48:05;;;;;;;26.90;16.90;;;11.60;99.90;;;;;;5083189;28;20385;-81
2022/04/23 06:50:49;;;;;;;25.57;17.43;;;11.70;99.90;;;;;;5086203;28;20388;-79
2022/04/23 06:53:34;;;;;;;28.30;17.80;;;11.90;99.90;;;;;;5081507;28;20402;-81
2022/04/23 06:56:18;;;;;;;26.40;17.97;;;12.10;99.90;;;;;;5082119;28;20452;-79
2022/04/23 06:59:04;;;;;;;25.60;16.87;;;12.00;99.90;;;;;;5082031;28;20955;-80
2022/04/23 07:01:48;;;;;;;29.97;16.97;;;11.70;99.90;;;;;;5082524;28;20409;-80
2022/04/23 07:04:33;;;;;;;22.80;15.93;;;11.90;99.90;;;;;;5083188;28;20448;-81
2022/04/23 07:07:17;;;;;;;22.87;16.80;;;11.90;99.90;;;;;;5084726;28;20389;-81
2022/04/23 07:10:10;;;;;;;25.70;19.17;;;11.90;99.90;;;;;;5087093;28;20416;-81
2022/04/23 07:12:55;;;;;;;37.43;15.87;;;11.80;99.90;;;;;;5034096;28;20436;-80
2022/04/23 07:15:40;;;;;;;34.00;18.03;;;12.00;99.90;;;;;;5088765;28;20393;-80
2022/04/23 07:18:26;;;;;;;26.93;17.10;;;11.90;99.90;;;;;;5085198;28;20442;-81
2022/04/23 07:21:11;;;;;;;24.57;15.60;;;12.00;99.90;;;;;;5083594;28;20400;-80
2022/04/23 07:24:03;;;;;;;28.57;18.80;;;11.90;99.90;;;;;;5085231;28;20377;-81
2022/04/23 07:26:47;;;;;;;26.07;17.27;;;11.80;99.90;;;;;;5087272;28;20408;-80
2022/04/23 07:29:32;;;;;;;22.80;16.67;;;11.90;99.90;;;;;;5086951;28;20380;-80
2022/04/23 07:32:20;;;;;;;20.87;14.63;;;11.90;99.90;;;;;;5086353;28;20439;-80
2022/04/23 07:38:16;;;;;;;33.00;18.20;;;12.10;99.90;;;;;;5085672;28;20385;-80
2022/04/23 07:41:00;;;;;;;22.57;15.63;;;12.20;99.90;;;;;;5086449;28;20415;-81
2022/04/23 07:43:46;;;;;;;29.73;18.20;;;12.30;99.90;;;;;;5088455;28;20408;-81
2022/04/23 07:46:31;;;;;;;28.13;18.70;;;12.40;99.90;;;;;;5097643;28;20399;-80
2022/04/23 07:49:16;;;;;;;19.63;15.80;;;12.40;99.90;;;;;;5097518;28;20446;-80
2022/04/23 07:52:01;;;;;;;36.00;16.20;;;12.20;99.90;;;;;;5098568;28;20381;-79
2022/04/23 07:54:46;;;;;;;21.80;15.13;;;12.40;99.90;;;;;;5095435;28;20404;-78
2022/04/23 07:57:30;;;;;;;23.10;14.70;;;12.50;99.90;;;;;;5096305;28;20444;-79
2022/04/23 08:00:15;;;;;;;19.07;14.13;;;12.60;99.90;;;;;;5097274;28;20389;-80
2022/04/23 08:03:03;;;;;;;18.67;14.13;;;12.50;99.90;;;;;;5098393;28;20468;-78
2022/04/23 08:05:48;;;;;;;20.70;14.67;;;12.50;99.90;;;;;;5099213;28;20405;-80
2022/04/23 08:08:33;;;;;;;21.03;14.53;;;12.60;99.90;;;;;;5099186;28;20401;-78
2022/04/23 08:11:19;;;;;;;14.93;12.13;;;12.70;99.90;;;;;;5090321;28;20436;-81
2022/04/23 08:14:04;;;;;;;16.97;13.87;;;12.70;99.90;;;;;;5086976;28;20474;-81
2022/04/23 08:16:50;;;;;;;21.40;15.07;;;12.70;99.90;;;;;;5086525;28;20448;-81
2022/04/23 08:19:35;;;;;;;20.47;13.10;;;12.90;99.90;;;;;;5086941;28;20385;-81
2022/04/23 08:22:19;;;;;;;22.73;14.00;;;13.00;99.90;;;;;;5086183;28;20401;-80
2022/04/23 08:25:05;;;;;;;22.60;14.93;;;12.90;99.90;;;;;;5085531;28;20788;-81
2022/04/23 08:27:52;;;;;;;23.27;14.77;;;13.00;99.90;;;;;;5090717;28;20796;-80
2022/04/23 08:30:37;;;;;;;20.83;15.10;;;13.00;99.90;;;;;;5093486;28;20542;-79
2022/04/23 08:33:21;;;;;;;16.80;12.20;;;12.90;99.90;;;;;;5095848;28;20396;-80
2022/04/23 08:36:06;;;;;;;15.27;12.13;;;12.40;99.90;;;;;;5094556;28;20440;-81
2022/04/23 08:38:51;;;;;;;19.20;14.50;;;12.50;99.90;;;;;;5091479;28;20393;-81
2022/04/23 08:41:36;;;;;;;18.17;14.47;;;12.70;99.90;;;;;;5090900;28;20495;-80
2022/04/23 08:44:21;;;;;;;20.77;14.63;;;12.80;99.90;;;;;;5091061;28;20393;-82
2022/04/23 08:47:08;;;;;;;25.00;14.40;;;13.00;99.90;;;;;;5089135;28;20385;-79
2022/04/23 08:49:54;;;;;;;22.90;15.90;;;13.20;99.90;;;;;;5093062;28;20412;-80
2022/04/23 08:52:42;;;;;;;22.30;14.30;;;13.20;99.90;;;;;;5078247;28;20382;-80
2022/04/23 08:55:27;;;;;;;27.53;15.27;;;13.40;99.90;;;;;;5092749;28;20428;-80
2022/04/23 08:58:13;;;;;;;20.20;12.57;;;13.70;99.90;;;;;;5091883;28;20488;-80
2022/04/23 09:00:57;;;;;;;15.23;13.53;;;13.80;99.90;;;;;;5092813;28;20455;-80
2022/04/23 09:03:42;;;;;;;19.57;13.50;;;13.00;99.90;;;;;;5093329;28;20448;-79
2022/04/23 09:06:35;;;;;;;16.13;12.63;;;12.80;99.90;;;;;;5093583;28;20393;-81
2022/04/23 09:09:22;;;;;;;14.60;11.80;;;12.90;99.90;;;;;;5090867;28;20385;-81
2022/04/23 09:12:07;;;;;;;20.23;13.93;;;12.70;99.90;;;;;;5090344;28;20432;-79
2022/04/23 09:14:54;;;;;;;15.17;12.73;;;12.80;99.90;;;;;;5089548;28;20453;-80
2022/04/23 09:24:08;;;;;;;16.70;12.77;;;12.90;99.90;;;;;;5088669;28;20393;-81
2022/04/23 09:27:05;;;;;;;19.53;13.13;;;13.00;99.90;;;;;;5089602;28;20401;-79
2022/04/23 09:29:58;;;;;;;16.00;12.07;;;13.20;99.90;;;;;;5088199;28;20385;-80
2022/04/23 09:33:00;;;;;;;13.10;11.00;;;13.30;99.90;;;;;;5089735;28;20485;-81
2022/04/23 09:36:02;;;;;;;16.00;11.90;;;13.70;99.90;;;;;;5089999;28;20392;-80
2022/04/23 09:39:02;;;;;;;16.23;13.00;;;13.90;99.90;;;;;;5089291;28;20380;-80
2022/04/23 09:41:47;;;;;;;15.17;11.40;;;14.10;99.90;;;;;;5092534;28;20405;-80
2022/04/23 09:44:31;;;;;;;19.40;11.90;;;14.40;99.90;;;;;;5088016;28;20733;-81
2022/04/23 09:47:32;;;;;;;19.97;11.80;;;14.50;99.90;;;;;;5086810;28;20392;-81
2022/04/23 09:50:16;;;;;;;14.37;11.77;;;14.40;99.90;;;;;;5086713;28;20378;-81
2022/04/23 09:53:08;;;;;;;16.57;12.47;;;14.20;99.90;;;;;;5084822;28;20444;-82
2022/04/23 09:55:58;;;;;;;14.63;12.57;;;14.20;99.90;;;;;;5082541;28;20469;-80
2022/04/23 09:58:43;;;;;;;19.50;13.37;;;14.50;99.90;;;;;;5083207;28;20451;-82
2022/04/23 10:01:29;;;;;;;17.23;11.57;;;14.40;99.90;;;;;;5083860;28;20455;-80
2022/04/23 10:04:15;;;;;;;19.93;13.03;;;14.40;99.90;;;;;;5084262;28;20456;-81
2022/04/23 10:07:01;;;;;;;17.83;13.50;;;14.30;99.90;;;;;;5076394;28;20917;-79
2022/04/23 10:09:48;;;;;;;20.40;11.97;;;14.10;99.90;;;;;;5091496;28;20405;-81
2022/04/23 10:12:33;;;;;;;14.40;11.70;;;14.20;99.90;;;;;;5090811;28;20500;-79
2022/04/23 10:15:18;;;;;;;13.87;10.77;;;14.60;99.90;;;;;;5086537;28;20389;-80
2022/04/23 10:18:05;;;;;;;13.30;11.90;;;14.80;99.90;;;;;;5086839;28;20455;-79
2022/04/23 10:20:57;;;;;;;17.43;12.73;;;15.30;99.90;;;;;;5059115;28;20377;-79
2022/04/23 10:24:16;;;;;;;20.40;12.70;;;14.80;99.90;;;;;;5069898;28;20396;-80
2022/04/23 10:27:10;;;;;;;17.30;11.67;;;15.00;99.90;;;;;;5082098;28;20413;-81
2022/04/23 10:29:56;;;;;;;16.20;10.40;;;14.60;99.90;;;;;;5067402;28;20384;-81
2022/04/23 10:32:41;;;;;;;21.20;11.67;;;14.50;99.90;;;;;;5080446;28;20484;-80
2022/04/23 10:35:35;;;;;;;17.37;12.83;;;14.60;99.90;;;;;;5081218;28;20378;-81
2022/04/23 10:38:21;;;;;;;20.97;13.60;;;14.50;99.90;;;;;;5080715;28;20389;-80
2022/04/23 10:41:07;;;;;;;15.33;11.30;;;14.40;99.90;;;;;;5086904;28;20416;-80
2022/04/23 10:43:59;;;;;;;13.87;9.47;;;14.30;99.90;;;;;;5089546;28;20377;-78
2022/04/23 10:46:44;;;;;;;14.67;10.50;;;14.20;99.90;;;;;;5076296;28;20409;-80
2022/04/23 10:49:28;;;;;;;14.27;11.80;;;14.30;99.90;;;;;;5090878;28;20411;-81
2022/04/23 10:52:35;;;;;;;13.47;11.97;;;14.30;99.90;;;;;;5089980;28;20416;-80
2022/04/23 10:55:21;;;;;;;15.23;11.53;;;14.50;99.90;;;;;;5090903;28;20766;-81
2022/04/23 10:58:21;;;;;;;13.20;10.37;;;14.50;99.90;;;;;;5090314;28;20389;-81
2022/04/23 11:01:20;;;;;;;15.70;10.17;;;14.80;99.90;;;;;;5093942;28;20459;-79
2022/04/23 11:04:10;;;;;;;12.97;11.37;;;14.60;99.90;;;;;;5093683;28;20436;-81
2022/04/23 11:13:23;;;;;;;12.60;9.50;;;14.70;99.90;;;;;;5093612;28;20435;-81
2022/04/23 11:16:18;;;;;;;18.90;11.43;;;14.80;99.90;;;;;;5094412;28;20452;-81
2022/04/23 11:19:04;;;;;;;13.00;11.30;;;14.70;99.90;;;;;;5052703;28;20527;-78
2022/04/23 11:21:49;;;;;;;17.20;11.30;;;14.80;99.90;;;;;;5052819;28;20386;-80
2022/04/23 11:24:34;;;;;;;14.73;10.70;;;14.90;99.90;;;;;;5038710;28;20537;-79
2022/04/23 11:27:36;;;;;;;14.97;12.47;;;15.00;99.90;;;;;;5038294;28;20523;-80
2022/04/23 11:30:29;;;;;;;16.03;11.00;;;14.80;99.90;;;;;;5051931;28;20387;-79
2022/04/23 11:33:13;;;;;;;16.97;10.80;;;15.30;99.90;;;;;;5052183;28;20430;-81
2022/04/23 11:35:58;;;;;;;13.53;11.50;;;15.20;99.90;;;;;;5038636;28;20596;-80
2022/04/23 11:38:44;;;;;;;13.10;10.50;;;15.20;99.90;;;;;;5037965;28;20419;-81
2022/04/23 11:41:33;;;;;;;13.47;10.90;;;15.60;99.90;;;;;;5032449;28;20407;-80
2022/04/23 11:47:30;;;;;;;12.83;10.60;;;16.10;99.90;;;;;;5031969;28;20476;-81
2022/04/23 11:50:18;;;;;;;9.50;8.27;;;16.40;99.90;;;;;;5060050;28;20421;-81
2022/04/23 11:53:05;;;;;;;11.90;10.57;;;16.40;99.90;;;;;;5041493;28;20398;-79
2022/04/23 11:55:51;;;;;;;15.70;10.10;;;16.60;99.90;;;;;;5041307;28;20510;-81
2022/04/23 11:58:38;;;;;;;10.70;9.20;;;17.70;99.90;;;;;;5070610;28;20386;-80
2022/04/23 12:01:27;;;;;;;13.47;9.80;;;17.60;99.90;;;;;;5056621;28;20621;-80
2022/04/23 12:04:13;;;;;;;10.90;8.97;;;17.90;99.90;;;;;;5056480;28;20473;-81
2022/04/23 12:07:01;;;;;;;13.80;9.87;;;18.00;99.90;;;;;;5055926;28;20456;-80
2022/04/23 12:09:50;;;;;;;13.53;11.80;;;17.80;99.90;;;;;;5042371;28;20405;-81
2022/04/23 12:12:34;;;;;;;16.47;13.70;;;17.90;99.90;;;;;;5078322;28;20408;-81
2022/04/23 12:15:20;;;;;;;12.13;10.97;;;19.10;99.90;;;;;;5077004;28;20409;-81
2022/04/23 12:18:15;;;;;;;19.40;11.37;;;18.50;99.90;;;;;;5092784;28;20420;-80
2022/04/23 12:21:07;;;;;;;11.90;8.93;;;17.10;99.90;;;;;;5092252;28;20409;-80
2022/04/23 12:23:51;;;;;;;11.00;9.80;;;17.00;99.90;;;;;;5094047;28;20376;-81
2022/04/23 12:26:38;;;;;;;8.27;7.37;;;17.20;99.90;;;;;;5092224;28;20385;-79
2022/04/23 12:41:19;;;;;;;9.90;8.07;;;16.80;99.90;;;;;;5093241;28;20381;-80
2022/04/23 12:44:20;;;;;;;10.70;9.03;;;17.40;99.90;;;;;;5058718;28;20405;-81
2022/04/23 12:47:15;;;;;;;10.57;9.47;;;17.40;99.90;;;;;;5071223;28;20409;-81
2022/04/23 12:50:02;;;;;;;11.10;8.80;;;17.40;99.90;;;;;;5056493;28;20441;-81
2022/04/23 12:52:50;;;;;;;10.33;8.27;;;17.30;99.90;;;;;;5069875;28;20456;-79
2022/04/23 12:55:38;;;;;;;9.97;8.30;;;17.50;99.90;;;;;;5044375;28;20688;-81
2022/04/23 12:58:22;;;;;;;6.80;6.20;;;17.70;99.90;;;;;;5069766;28;20505;-82
2022/04/23 13:01:08;;;;;;;9.30;6.87;;;17.40;99.90;;;;;;5054666;28;20461;-79
2022/04/23 13:04:16;;;;;;;9.70;7.57;;;17.60;99.90;;;;;;5056022;28;20462;-80
2022/04/23 13:10:08;;;;;;;10.60;7.67;;;18.00;99.90;;;;;;4954584;29;20459;-80
2022/04/23 13:12:56;;;;;;;7.50;6.77;;;17.30;99.90;;;;;;4955032;29;20415;-80
2022/04/23 13:15:40;;;;;;;9.57;8.33;;;17.10;99.90;;;;;;4972299;28;20452;-81
2022/04/23 13:18:26;;;;;;;9.57;8.63;;;17.10;99.90;;;;;;4990912;28;20413;-81
2022/04/23 13:21:14;;;;;;;9.37;8.47;;;17.70;99.90;;;;;;4964085;28;20381;-80
2022/04/23 13:24:00;;;;;;;8.53;7.57;;;17.50;99.90;;;;;;4994016;28;20409;-81
2022/04/23 13:26:44;;;;;;;9.13;8.27;;;17.30;99.90;;;;;;4994256;28;20425;-80
2022/04/23 13:29:29;;;;;;;9.43;8.07;;;17.80;99.90;;;;;;4994477;28;20417;-80
2022/04/23 13:32:16;;;;;;;8.10;7.20;;;17.80;99.90;;;;;;4974712;28;20409;-81
2022/04/23 13:35:04;;;;;;;9.87;7.13;;;17.70;99.90;;;;;;4991362;28;20441;-80
2022/04/23 13:37:49;;;;;;;7.73;7.03;;;18.00;99.90;;;;;;4977309;28;20937;-81
2022/04/23 13:40:33;;;;;;;9.23;8.40;;;17.90;99.90;;;;;;5007910;28;20529;-81
2022/04/23 13:43:18;;;;;;;9.37;7.90;;;17.90;99.90;;;;;;5049826;28;20394;-81
2022/04/23 13:46:05;;;;;;;9.87;8.87;;;17.40;99.90;;;;;;5050367;28;20502;-80
2022/04/23 13:48:50;;;;;;;10.00;9.00;;;17.80;99.90;;;;;;5047545;28;20473;-80
2022/04/23 13:51:40;;;;;;;12.23;8.23;;;18.10;99.90;;;;;;5036584;28;20448;-81
2022/04/23 13:54:25;;;;;;;8.20;7.40;;;17.50;99.90;;;;;;5048404;28;20399;-80
2022/04/23 13:57:11;;;;;;;7.50;6.80;;;17.20;99.90;;;;;;5076033;28;20571;-83
2022/04/23 13:59:57;;;;;;;11.43;8.47;;;17.50;99.90;;;;;;5088141;28;20404;-82
2022/04/23 14:11:46;;;;;;;10.40;8.40;;;18.20;99.90;;;;;;5087020;28;20483;-84
2022/04/23 14:14:34;;;;;;;8.73;7.83;;;17.90;99.90;;;;;;5072856;28;20481;-83
2022/04/23 14:17:18;;;;;;;9.47;7.30;;;17.90;99.90;;;;;;5089307;28;20452;-83
2022/04/23 14:20:04;;;;;;;7.90;7.17;;;17.20;99.90;;;;;;5088321;28;20469;-84
2022/04/23 14:22:49;;;;;;;8.00;6.70;;;16.90;99.90;;;;;;5087066;28;20388;-84
2022/04/23 14:25:34;;;;;;;9.60;7.70;;;16.50;99.90;;;;;;5086298;28;20409;-83
2022/04/23 14:28:19;;;;;;;6.30;5.80;;;16.60;99.90;;;;;;5086948;28;20397;-84
2022/04/23 14:31:04;;;;;;;8.37;6.60;;;16.90;99.90;;;;;;5086785;28;20393;-83
2022/04/23 14:33:50;;;;;;;8.13;6.80;;;16.70;99.90;;;;;;5086935;28;20527;-84
2022/04/23 14:36:38;;;;;;;8.30;6.83;;;17.00;99.90;;;;;;5071962;28;20439;-84
2022/04/23 14:39:24;;;;;;;7.60;6.90;;;17.50;99.90;;;;;;5088000;28;20390;-83
2022/04/23 14:42:10;;;;;;;8.07;6.90;;;17.60;99.90;;;;;;5086477;28;20480;-84
2022/04/23 14:44:55;;;;;;;7.80;6.90;;;17.20;99.90;;;;;;5072893;28;20388;-82
2022/04/23 14:47:40;;;;;;;14.10;7.63;;;17.30;99.90;;;;;;5087622;28;20475;-83
2022/04/23 14:50:25;;;;;;;7.43;6.43;;;16.90;99.90;;;;;;5087742;28;20400;-84
2022/04/23 14:53:10;;;;;;;7.20;6.43;;;16.90;99.90;;;;;;5086469;28;20424;-84
2022/04/23 14:55:56;;;;;;;8.83;7.93;;;17.10;99.90;;;;;;5087823;28;20489;-85